sensor_id;sensor_type;location;lat;lon;timestamp;P1;durP1;ratioP1;P2;durP2;ratioP2
16634;SDS011;8431;52.458;9.998;2023-08-12T00:02:13;17.67;;;16.35;;
16634;SDS011;8431;52.458;9.998;2023-08-12T00:04:40;17.38;;;16.08;;
16634;SDS011;8431;52.458;9.998;2023-08-12T00:07:07;17.40;;;16.33;;
16634;SDS011;8431;52.458;9.998;2023-08-12T00:09:34;17.20;;;16.20;;
16634;SDS011;8431;52.458;9.998;2023-08-12T00:12:03;17.10;;;15.80;;
16634;SDS011;8431;52.458;9.998;2023-08-12T00:14:30;17.02;;;15.73;;
16634;SDS011;8431;52.458;9.998;2023-08-12T00:16:57;17.42;;;15.85;;
16634;SDS011;8431;52.458;9.998;2023-08-12T00:19:24;17.38;;;15.95;;
16634;SDS011;8431;52.458;9.998;2023-08-12T00:21:51;17.33;;;16.13;;
16634;SDS011;8431;52.458;9.998;2023-08-12T00:24:18;17.42;;;16.08;;
16634;SDS011;8431;52.458;9.998;2023-08-12T00:26:45;17.40;;;15.77;;
16634;SDS011;8431;52.458;9.998;2023-08-12T00:29:13;18.48;;;15.27;;
16634;SDS011;8431;52.458;9.998;2023-08-12T00:31:40;16.45;;;15.35;;
16634;SDS011;8431;52.458;9.998;2023-08-12T00:34:07;16.70;;;15.40;;
16634;SDS011;8431;52.458;9.998;2023-08-12T00:36:34;16.92;;;15.73;;
16634;SDS011;8431;52.458;9.998;2023-08-12T00:39:02;16.92;;;15.82;;
16634;SDS011;8431;52.458;9.998;2023-08-12T00:41:30;18.38;;;15.80;;
16634;SDS011;8431;52.458;9.998;2023-08-12T00:43:57;16.85;;;15.40;;
16634;SDS011;8431;52.458;9.998;2023-08-12T00:46:25;17.13;;;15.77;;
16634;SDS011;8431;52.458;9.998;2023-08-12T00:48:52;16.48;;;15.25;;
16634;SDS011;8431;52.458;9.998;2023-08-12T00:51:19;15.68;;;14.77;;
16634;SDS011;8431;52.458;9.998;2023-08-12T00:53:46;17.45;;;16.02;;
16634;SDS011;8431;52.458;9.998;2023-08-12T00:56:13;16.35;;;15.13;;
16634;SDS011;8431;52.458;9.998;2023-08-12T00:58:40;20.02;;;14.98;;
16634;SDS011;8431;52.458;9.998;2023-08-12T01:01:08;16.45;;;15.15;;
16634;SDS011;8431;52.458;9.998;2023-08-12T01:03:38;17.95;;;16.20;;
16634;SDS011;8431;52.458;9.998;2023-08-12T01:06:05;16.33;;;14.95;;
16634;SDS011;8431;52.458;9.998;2023-08-12T01:08:33;15.85;;;14.30;;
16634;SDS011;8431;52.458;9.998;2023-08-12T01:11:02;16.38;;;14.82;;
16634;SDS011;8431;52.458;9.998;2023-08-12T01:13:34;16.50;;;15.18;;
16634;SDS011;8431;52.458;9.998;2023-08-12T01:16:08;16.70;;;15.10;;
16634;SDS011;8431;52.458;9.998;2023-08-12T01:18:38;16.20;;;14.90;;
16634;SDS011;8431;52.458;9.998;2023-08-12T01:21:05;16.25;;;15.13;;
16634;SDS011;8431;52.458;9.998;2023-08-12T01:23:39;16.58;;;15.23;;
16634;SDS011;8431;52.458;9.998;2023-08-12T01:26:06;17.02;;;15.85;;
16634;SDS011;8431;52.458;9.998;2023-08-12T01:28:33;16.83;;;15.45;;
16634;SDS011;8431;52.458;9.998;2023-08-12T01:31:01;15.68;;;14.77;;
16634;SDS011;8431;52.458;9.998;2023-08-12T01:33:34;15.55;;;14.45;;
16634;SDS011;8431;52.458;9.998;2023-08-12T01:36:07;16.05;;;15.07;;
16634;SDS011;8431;52.458;9.998;2023-08-12T01:38:35;16.63;;;15.35;;
16634;SDS011;8431;52.458;9.998;2023-08-12T01:44:14;16.45;;;15.18;;
16634;SDS011;8431;52.458;9.998;2023-08-12T01:46:42;16.30;;;15.23;;
16634;SDS011;8431;52.458;9.998;2023-08-12T01:49:10;16.60;;;15.43;;
16634;SDS011;8431;52.458;9.998;2023-08-12T01:51:37;16.25;;;15.05;;
16634;SDS011;8431;52.458;9.998;2023-08-12T01:54:05;16.83;;;15.65;;
16634;SDS011;8431;52.458;9.998;2023-08-12T01:56:32;16.90;;;15.63;;
16634;SDS011;8431;52.458;9.998;2023-08-12T01:58:59;17.08;;;15.93;;
16634;SDS011;8431;52.458;9.998;2023-08-12T02:01:26;18.15;;;16.85;;
16634;SDS011;8431;52.458;9.998;2023-08-12T02:03:53;17.23;;;15.68;;
16634;SDS011;8431;52.458;9.998;2023-08-12T02:06:20;16.67;;;15.27;;
16634;SDS011;8431;52.458;9.998;2023-08-12T02:08:47;16.40;;;15.15;;
16634;SDS011;8431;52.458;9.998;2023-08-12T02:11:17;17.80;;;15.27;;
16634;SDS011;8431;52.458;9.998;2023-08-12T02:13:44;17.35;;;15.60;;
16634;SDS011;8431;52.458;9.998;2023-08-12T02:16:11;16.80;;;15.50;;
16634;SDS011;8431;52.458;9.998;2023-08-12T02:18:38;16.88;;;15.55;;
16634;SDS011;8431;52.458;9.998;2023-08-12T02:21:05;16.30;;;15.23;;
16634;SDS011;8431;52.458;9.998;2023-08-12T02:23:32;17.58;;;15.85;;
16634;SDS011;8431;52.458;9.998;2023-08-12T02:25:58;15.40;;;14.27;;
16634;SDS011;8431;52.458;9.998;2023-08-12T02:28:27;19.25;;;15.38;;
16634;SDS011;8431;52.458;9.998;2023-08-12T02:30:54;16.33;;;15.30;;
16634;SDS011;8431;52.458;9.998;2023-08-12T02:33:21;16.77;;;15.68;;
16634;SDS011;8431;52.458;9.998;2023-08-12T02:35:48;17.08;;;15.90;;
16634;SDS011;8431;52.458;9.998;2023-08-12T02:38:18;17.02;;;15.90;;
16634;SDS011;8431;52.458;9.998;2023-08-12T02:40:47;16.10;;;15.02;;
16634;SDS011;8431;52.458;9.998;2023-08-12T02:43:14;16.83;;;15.52;;
16634;SDS011;8431;52.458;9.998;2023-08-12T02:45:42;17.70;;;16.30;;
16634;SDS011;8431;52.458;9.998;2023-08-12T02:48:10;16.77;;;15.70;;
16634;SDS011;8431;52.458;9.998;2023-08-12T02:50:37;16.38;;;15.48;;
16634;SDS011;8431;52.458;9.998;2023-08-12T02:53:04;16.88;;;15.52;;
16634;SDS011;8431;52.458;9.998;2023-08-12T02:55:32;16.58;;;15.45;;
16634;SDS011;8431;52.458;9.998;2023-08-12T02:57:59;17.38;;;15.80;;
16634;SDS011;8431;52.458;9.998;2023-08-12T03:00:26;17.45;;;16.23;;
16634;SDS011;8431;52.458;9.998;2023-08-12T03:02:55;17.00;;;15.90;;
16634;SDS011;8431;52.458;9.998;2023-08-12T03:05:22;16.95;;;15.60;;
16634;SDS011;8431;52.458;9.998;2023-08-12T03:07:49;17.15;;;15.95;;
16634;SDS011;8431;52.458;9.998;2023-08-12T03:10:17;16.08;;;15.07;;
16634;SDS011;8431;52.458;9.998;2023-08-12T03:12:44;17.33;;;16.23;;
16634;SDS011;8431;52.458;9.998;2023-08-12T03:15:11;17.48;;;15.93;;
16634;SDS011;8431;52.458;9.998;2023-08-12T03:17:38;16.70;;;15.80;;
16634;SDS011;8431;52.458;9.998;2023-08-12T03:20:07;16.98;;;16.08;;
16634;SDS011;8431;52.458;9.998;2023-08-12T03:22:35;17.48;;;16.00;;
16634;SDS011;8431;52.458;9.998;2023-08-12T03:25:02;17.55;;;16.17;;
16634;SDS011;8431;52.458;9.998;2023-08-12T03:27:30;16.90;;;15.63;;
16634;SDS011;8431;52.458;9.998;2023-08-12T03:29:57;16.00;;;14.95;;
16634;SDS011;8431;52.458;9.998;2023-08-12T03:32:24;16.85;;;15.52;;
16634;SDS011;8431;52.458;9.998;2023-08-12T03:34:51;16.98;;;15.77;;
16634;SDS011;8431;52.458;9.998;2023-08-12T03:37:20;16.48;;;15.20;;
16634;SDS011;8431;52.458;9.998;2023-08-12T03:39:47;16.95;;;15.55;;
16634;SDS011;8431;52.458;9.998;2023-08-12T03:42:14;18.27;;;16.45;;
16634;SDS011;8431;52.458;9.998;2023-08-12T03:44:42;17.63;;;16.60;;
16634;SDS011;8431;52.458;9.998;2023-08-12T03:47:09;19.05;;;16.83;;
16634;SDS011;8431;52.458;9.998;2023-08-12T03:49:36;17.60;;;16.40;;
16634;SDS011;8431;52.458;9.998;2023-08-12T03:52:03;17.52;;;16.00;;
16634;SDS011;8431;52.458;9.998;2023-08-12T03:54:33;19.10;;;17.60;;
16634;SDS011;8431;52.458;9.998;2023-08-12T03:57:00;16.48;;;15.68;;
16634;SDS011;8431;52.458;9.998;2023-08-12T03:59:27;18.60;;;17.63;;
16634;SDS011;8431;52.458;9.998;2023-08-12T04:01:54;19.25;;;18.15;;
16634;SDS011;8431;52.458;9.998;2023-08-12T04:04:21;18.92;;;17.70;;
16634;SDS011;8431;52.458;9.998;2023-08-12T04:06:48;19.73;;;18.50;;
16634;SDS011;8431;52.458;9.998;2023-08-12T04:09:16;18.55;;;17.58;;
16634;SDS011;8431;52.458;9.998;2023-08-12T04:11:45;18.60;;;17.65;;
16634;SDS011;8431;52.458;9.998;2023-08-12T04:14:12;18.80;;;17.80;;
16634;SDS011;8431;52.458;9.998;2023-08-12T04:16:39;18.70;;;17.45;;
16634;SDS011;8431;52.458;9.998;2023-08-12T04:19:06;18.55;;;17.35;;
16634;SDS011;8431;52.458;9.998;2023-08-12T04:21:34;17.70;;;16.85;;
16634;SDS011;8431;52.458;9.998;2023-08-12T04:24:01;19.20;;;17.63;;
16634;SDS011;8431;52.458;9.998;2023-08-12T04:26:28;18.70;;;17.65;;
16634;SDS011;8431;52.458;9.998;2023-08-12T04:28:56;18.17;;;17.10;;
16634;SDS011;8431;52.458;9.998;2023-08-12T04:31:23;17.60;;;16.42;;
16634;SDS011;8431;52.458;9.998;2023-08-12T04:33:50;17.98;;;16.77;;
16634;SDS011;8431;52.458;9.998;2023-08-12T04:36:18;20.85;;;18.83;;
16634;SDS011;8431;52.458;9.998;2023-08-12T04:38:45;17.77;;;16.27;;
16634;SDS011;8431;52.458;9.998;2023-08-12T04:41:12;1999.90;;;999.90;;
16634;SDS011;8431;52.458;9.998;2023-08-12T04:43:39;1999.90;;;999.90;;
16634;SDS011;8431;52.458;9.998;2023-08-12T04:46:07;1184.80;;;524.05;;
16634;SDS011;8431;52.458;9.998;2023-08-12T04:48:34;73.97;;;23.48;;
16634;SDS011;8431;52.458;9.998;2023-08-12T04:51:01;18.38;;;16.88;;
16634;SDS011;8431;52.458;9.998;2023-08-12T04:53:30;17.67;;;16.42;;
16634;SDS011;8431;52.458;9.998;2023-08-12T04:55:57;18.60;;;17.05;;
16634;SDS011;8431;52.458;9.998;2023-08-12T04:58:24;20.55;;;19.20;;
16634;SDS011;8431;52.458;9.998;2023-08-12T05:00:51;19.30;;;18.02;;
16634;SDS011;8431;52.458;9.998;2023-08-12T05:03:19;18.08;;;16.88;;
16634;SDS011;8431;52.458;9.998;2023-08-12T05:05:48;17.88;;;16.77;;
16634;SDS011;8431;52.458;9.998;2023-08-12T05:08:16;18.10;;;16.80;;
16634;SDS011;8431;52.458;9.998;2023-08-12T05:10:43;18.85;;;17.15;;
16634;SDS011;8431;52.458;9.998;2023-08-12T05:13:10;19.80;;;18.13;;
16634;SDS011;8431;52.458;9.998;2023-08-12T05:15:37;20.98;;;19.38;;
16634;SDS011;8431;52.458;9.998;2023-08-12T05:18:05;19.98;;;17.77;;
16634;SDS011;8431;52.458;9.998;2023-08-12T05:20:33;18.80;;;17.60;;
16634;SDS011;8431;52.458;9.998;2023-08-12T05:23:00;19.83;;;18.23;;
16634;SDS011;8431;52.458;9.998;2023-08-12T05:25:27;18.23;;;17.02;;
16634;SDS011;8431;52.458;9.998;2023-08-12T05:27:54;19.45;;;17.85;;
16634;SDS011;8431;52.458;9.998;2023-08-12T05:30:21;18.95;;;17.40;;
16634;SDS011;8431;52.458;9.998;2023-08-12T05:32:48;19.20;;;17.85;;
16634;SDS011;8431;52.458;9.998;2023-08-12T05:35:15;19.10;;;17.70;;
16634;SDS011;8431;52.458;9.998;2023-08-12T05:37:44;19.02;;;17.30;;
16634;SDS011;8431;52.458;9.998;2023-08-12T05:40:11;18.13;;;16.77;;
16634;SDS011;8431;52.458;9.998;2023-08-12T05:42:38;60.72;;;21.67;;
16634;SDS011;8431;52.458;9.998;2023-08-12T05:45:05;21.33;;;20.02;;
16634;SDS011;8431;52.458;9.998;2023-08-12T05:47:32;22.30;;;20.85;;
16634;SDS011;8431;52.458;9.998;2023-08-12T05:49:59;23.38;;;21.98;;
16634;SDS011;8431;52.458;9.998;2023-08-12T05:52:26;21.95;;;20.75;;
16634;SDS011;8431;52.458;9.998;2023-08-12T05:54:55;23.15;;;21.77;;
16634;SDS011;8431;52.458;9.998;2023-08-12T05:57:22;22.98;;;21.50;;
16634;SDS011;8431;52.458;9.998;2023-08-12T05:59:49;21.25;;;20.05;;
16634;SDS011;8431;52.458;9.998;2023-08-12T06:02:16;21.17;;;19.92;;
16634;SDS011;8431;52.458;9.998;2023-08-12T06:04:43;22.75;;;21.35;;
16634;SDS011;8431;52.458;9.998;2023-08-12T06:07:10;24.17;;;22.00;;
16634;SDS011;8431;52.458;9.998;2023-08-12T06:09:37;22.25;;;20.80;;
16634;SDS011;8431;52.458;9.998;2023-08-12T06:12:06;328.80;;;46.60;;
16634;SDS011;8431;52.458;9.998;2023-08-12T06:14:37;20.73;;;19.13;;
16634;SDS011;8431;52.458;9.998;2023-08-12T06:17:05;21.95;;;20.35;;
16634;SDS011;8431;52.458;9.998;2023-08-12T06:19:32;22.00;;;20.17;;
16634;SDS011;8431;52.458;9.998;2023-08-12T06:21:59;23.08;;;21.42;;
16634;SDS011;8431;52.458;9.998;2023-08-12T06:24:26;21.95;;;20.40;;
16634;SDS011;8431;52.458;9.998;2023-08-12T06:26:53;21.67;;;20.00;;
16634;SDS011;8431;52.458;9.998;2023-08-12T06:29:21;23.45;;;21.67;;
16634;SDS011;8431;52.458;9.998;2023-08-12T06:31:48;22.38;;;20.70;;
16634;SDS011;8431;52.458;9.998;2023-08-12T06:34:16;22.42;;;20.77;;
16634;SDS011;8431;52.458;9.998;2023-08-12T06:36:43;23.98;;;22.02;;
16634;SDS011;8431;52.458;9.998;2023-08-12T06:39:10;24.63;;;22.63;;
16634;SDS011;8431;52.458;9.998;2023-08-12T06:41:37;24.48;;;22.52;;
16634;SDS011;8431;52.458;9.998;2023-08-12T06:44:04;24.67;;;22.70;;
16634;SDS011;8431;52.458;9.998;2023-08-12T06:46:33;24.42;;;22.13;;
16634;SDS011;8431;52.458;9.998;2023-08-12T06:49:00;22.95;;;21.20;;
16634;SDS011;8431;52.458;9.998;2023-08-12T06:51:27;24.00;;;22.10;;
16634;SDS011;8431;52.458;9.998;2023-08-12T06:53:53;23.63;;;21.83;;
16634;SDS011;8431;52.458;9.998;2023-08-12T06:56:20;23.67;;;21.75;;
16634;SDS011;8431;52.458;9.998;2023-08-12T06:58:47;22.88;;;20.98;;
16634;SDS011;8431;52.458;9.998;2023-08-12T07:01:14;23.50;;;21.80;;
16634;SDS011;8431;52.458;9.998;2023-08-12T07:03:43;22.63;;;21.02;;
16634;SDS011;8431;52.458;9.998;2023-08-12T07:06:10;22.92;;;21.05;;
16634;SDS011;8431;52.458;9.998;2023-08-12T07:08:36;24.20;;;22.27;;
16634;SDS011;8431;52.458;9.998;2023-08-12T07:11:03;23.70;;;21.55;;
16634;SDS011;8431;52.458;9.998;2023-08-12T07:13:30;24.67;;;22.50;;
16634;SDS011;8431;52.458;9.998;2023-08-12T07:15:58;22.05;;;20.45;;
16634;SDS011;8431;52.458;9.998;2023-08-12T07:18:25;23.02;;;21.08;;
16634;SDS011;8431;52.458;9.998;2023-08-12T07:20:53;23.70;;;21.67;;
16634;SDS011;8431;52.458;9.998;2023-08-12T07:23:20;22.48;;;20.80;;
16634;SDS011;8431;52.458;9.998;2023-08-12T07:25:47;23.50;;;21.73;;
16634;SDS011;8431;52.458;9.998;2023-08-12T07:28:14;23.83;;;21.98;;
16634;SDS011;8431;52.458;9.998;2023-08-12T07:30:41;21.98;;;20.48;;
16634;SDS011;8431;52.458;9.998;2023-08-12T07:33:08;22.95;;;21.27;;
16634;SDS011;8431;52.458;9.998;2023-08-12T07:35:35;22.10;;;20.40;;
16634;SDS011;8431;52.458;9.998;2023-08-12T07:38:04;22.55;;;21.05;;
16634;SDS011;8431;52.458;9.998;2023-08-12T07:40:31;21.77;;;20.08;;
16634;SDS011;8431;52.458;9.998;2023-08-12T07:42:58;21.63;;;19.80;;
16634;SDS011;8431;52.458;9.998;2023-08-12T07:45:25;22.00;;;20.13;;
16634;SDS011;8431;52.458;9.998;2023-08-12T07:47:52;22.48;;;20.52;;
16634;SDS011;8431;52.458;9.998;2023-08-12T07:50:19;22.60;;;20.70;;
16634;SDS011;8431;52.458;9.998;2023-08-12T07:52:46;21.98;;;20.30;;
16634;SDS011;8431;52.458;9.998;2023-08-12T07:55:14;24.05;;;22.02;;
16634;SDS011;8431;52.458;9.998;2023-08-12T07:57:41;22.02;;;20.33;;
16634;SDS011;8431;52.458;9.998;2023-08-12T08:00:08;22.25;;;20.55;;
16634;SDS011;8431;52.458;9.998;2023-08-12T08:02:37;21.77;;;20.00;;
16634;SDS011;8431;52.458;9.998;2023-08-12T08:05:04;20.55;;;19.05;;
16634;SDS011;8431;52.458;9.998;2023-08-12T08:07:32;21.00;;;19.52;;
16634;SDS011;8431;52.458;9.998;2023-08-12T08:09:59;21.88;;;20.30;;
16634;SDS011;8431;52.458;9.998;2023-08-12T08:12:28;21.33;;;19.60;;
16634;SDS011;8431;52.458;9.998;2023-08-12T08:14:55;20.05;;;18.63;;
16634;SDS011;8431;52.458;9.998;2023-08-12T08:17:21;20.48;;;18.75;;
16634;SDS011;8431;52.458;9.998;2023-08-12T08:19:48;19.60;;;18.30;;
16634;SDS011;8431;52.458;9.998;2023-08-12T08:22:15;21.92;;;20.38;;
16634;SDS011;8431;52.458;9.998;2023-08-12T08:24:43;23.88;;;21.88;;
16634;SDS011;8431;52.458;9.998;2023-08-12T08:27:10;23.00;;;20.80;;
16634;SDS011;8431;52.458;9.998;2023-08-12T08:29:39;22.15;;;20.50;;
16634;SDS011;8431;52.458;9.998;2023-08-12T08:32:06;23.88;;;22.13;;
16634;SDS011;8431;52.458;9.998;2023-08-12T08:34:33;23.48;;;21.33;;
16634;SDS011;8431;52.458;9.998;2023-08-12T08:37:00;22.30;;;20.73;;
16634;SDS011;8431;52.458;9.998;2023-08-12T08:39:28;22.67;;;21.08;;
16634;SDS011;8431;52.458;9.998;2023-08-12T08:41:56;22.77;;;21.25;;
16634;SDS011;8431;52.458;9.998;2023-08-12T08:44:24;22.98;;;21.48;;
16634;SDS011;8431;52.458;9.998;2023-08-12T08:46:57;22.63;;;20.75;;
16634;SDS011;8431;52.458;9.998;2023-08-12T08:49:25;21.58;;;19.75;;
16634;SDS011;8431;52.458;9.998;2023-08-12T08:51:54;21.52;;;19.92;;
16634;SDS011;8431;52.458;9.998;2023-08-12T08:54:21;21.95;;;20.60;;
16634;SDS011;8431;52.458;9.998;2023-08-12T08:56:49;23.30;;;21.48;;
16634;SDS011;8431;52.458;9.998;2023-08-12T08:59:16;23.13;;;21.25;;
16634;SDS011;8431;52.458;9.998;2023-08-12T09:01:43;22.77;;;20.90;;
16634;SDS011;8431;52.458;9.998;2023-08-12T09:04:14;23.38;;;21.15;;
16634;SDS011;8431;52.458;9.998;2023-08-12T09:06:42;21.70;;;20.27;;
16634;SDS011;8431;52.458;9.998;2023-08-12T09:09:10;22.48;;;20.95;;
16634;SDS011;8431;52.458;9.998;2023-08-12T09:11:42;22.10;;;20.50;;
16634;SDS011;8431;52.458;9.998;2023-08-12T09:14:10;22.40;;;20.67;;
16634;SDS011;8431;52.458;9.998;2023-08-12T09:16:38;21.73;;;20.15;;
16634;SDS011;8431;52.458;9.998;2023-08-12T09:19:06;21.55;;;19.92;;
16634;SDS011;8431;52.458;9.998;2023-08-12T09:21:34;20.83;;;19.42;;
16634;SDS011;8431;52.458;9.998;2023-08-12T09:24:02;21.35;;;19.50;;
16634;SDS011;8431;52.458;9.998;2023-08-12T09:26:30;20.30;;;19.05;;
16634;SDS011;8431;52.458;9.998;2023-08-12T09:28:57;20.05;;;18.50;;
16634;SDS011;8431;52.458;9.998;2023-08-12T09:31:26;18.17;;;17.08;;
16634;SDS011;8431;52.458;9.998;2023-08-12T09:33:54;19.77;;;18.42;;
16634;SDS011;8431;52.458;9.998;2023-08-12T09:36:25;20.23;;;18.73;;
16634;SDS011;8431;52.458;9.998;2023-08-12T09:38:55;19.85;;;18.65;;
16634;SDS011;8431;52.458;9.998;2023-08-12T09:41:23;19.58;;;18.17;;
16634;SDS011;8431;52.458;9.998;2023-08-12T09:43:50;19.25;;;17.95;;
16634;SDS011;8431;52.458;9.998;2023-08-12T09:46:18;19.08;;;17.85;;
16634;SDS011;8431;52.458;9.998;2023-08-12T09:48:49;17.77;;;16.85;;
16634;SDS011;8431;52.458;9.998;2023-08-12T09:51:16;19.23;;;17.83;;
16634;SDS011;8431;52.458;9.998;2023-08-12T09:53:43;18.15;;;16.77;;
16634;SDS011;8431;52.458;9.998;2023-08-12T09:56:12;19.00;;;17.70;;
16634;SDS011;8431;52.458;9.998;2023-08-12T09:58:42;18.33;;;17.33;;
16634;SDS011;8431;52.458;9.998;2023-08-12T10:01:10;18.23;;;16.77;;
16634;SDS011;8431;52.458;9.998;2023-08-12T10:03:38;18.20;;;17.10;;
16634;SDS011;8431;52.458;9.998;2023-08-12T10:06:07;18.38;;;17.23;;
16634;SDS011;8431;52.458;9.998;2023-08-12T10:08:34;17.42;;;16.50;;
16634;SDS011;8431;52.458;9.998;2023-08-12T10:11:02;17.02;;;16.13;;
16634;SDS011;8431;52.458;9.998;2023-08-12T10:13:31;17.98;;;16.35;;
16634;SDS011;8431;52.458;9.998;2023-08-12T10:15:58;17.42;;;15.82;;
16634;SDS011;8431;52.458;9.998;2023-08-12T10:18:26;17.05;;;16.10;;
16634;SDS011;8431;52.458;9.998;2023-08-12T10:20:56;18.30;;;16.83;;
16634;SDS011;8431;52.458;9.998;2023-08-12T10:23:25;17.73;;;16.63;;
16634;SDS011;8431;52.458;9.998;2023-08-12T10:25:54;19.15;;;17.58;;
16634;SDS011;8431;52.458;9.998;2023-08-12T10:28:22;19.67;;;18.40;;
16634;SDS011;8431;52.458;9.998;2023-08-12T10:30:51;19.98;;;18.50;;
16634;SDS011;8431;52.458;9.998;2023-08-12T10:33:18;19.02;;;17.95;;
16634;SDS011;8431;52.458;9.998;2023-08-12T10:35:45;19.00;;;17.90;;
16634;SDS011;8431;52.458;9.998;2023-08-12T10:38:16;18.73;;;17.40;;
16634;SDS011;8431;52.458;9.998;2023-08-12T10:40:44;18.77;;;17.77;;
16634;SDS011;8431;52.458;9.998;2023-08-12T10:43:11;19.17;;;18.15;;
16634;SDS011;8431;52.458;9.998;2023-08-12T10:45:42;19.13;;;18.02;;
16634;SDS011;8431;52.458;9.998;2023-08-12T10:48:23;19.05;;;17.75;;
16634;SDS011;8431;52.458;9.998;2023-08-12T10:50:52;19.67;;;18.50;;
16634;SDS011;8431;52.458;9.998;2023-08-12T10:53:21;19.15;;;17.88;;
16634;SDS011;8431;52.458;9.998;2023-08-12T10:55:50;19.10;;;17.92;;
16634;SDS011;8431;52.458;9.998;2023-08-12T10:58:24;20.75;;;19.17;;
16634;SDS011;8431;52.458;9.998;2023-08-12T11:00:53;19.13;;;17.70;;
16634;SDS011;8431;52.458;9.998;2023-08-12T11:03:20;18.85;;;17.63;;
16634;SDS011;8431;52.458;9.998;2023-08-12T11:05:49;19.00;;;17.80;;
16634;SDS011;8431;52.458;9.998;2023-08-12T11:08:23;19.98;;;18.77;;
16634;SDS011;8431;52.458;9.998;2023-08-12T11:10:53;18.88;;;17.77;;
16634;SDS011;8431;52.458;9.998;2023-08-12T11:13:22;18.20;;;17.20;;
16634;SDS011;8431;52.458;9.998;2023-08-12T11:15:49;18.88;;;17.52;;
16634;SDS011;8431;52.458;9.998;2023-08-12T11:18:17;18.52;;;17.52;;
16634;SDS011;8431;52.458;9.998;2023-08-12T11:20:47;18.42;;;17.33;;
16634;SDS011;8431;52.458;9.998;2023-08-12T11:23:15;18.55;;;17.55;;
16634;SDS011;8431;52.458;9.998;2023-08-12T11:25:43;17.85;;;16.73;;
16634;SDS011;8431;52.458;9.998;2023-08-12T11:28:10;19.55;;;18.20;;
16634;SDS011;8431;52.458;9.998;2023-08-12T11:30:40;18.92;;;17.85;;
16634;SDS011;8431;52.458;9.998;2023-08-12T11:33:08;18.25;;;16.98;;
16634;SDS011;8431;52.458;9.998;2023-08-12T11:35:35;20.92;;;17.92;;
16634;SDS011;8431;52.458;9.998;2023-08-12T11:38:05;22.85;;;17.35;;
16634;SDS011;8431;52.458;9.998;2023-08-12T11:40:33;19.48;;;17.67;;
16634;SDS011;8431;52.458;9.998;2023-08-12T11:43:01;19.42;;;17.63;;
16634;SDS011;8431;52.458;9.998;2023-08-12T11:45:28;19.42;;;18.27;;
16634;SDS011;8431;52.458;9.998;2023-08-12T11:47:55;18.00;;;16.98;;
16634;SDS011;8431;52.458;9.998;2023-08-12T11:50:22;18.42;;;17.08;;
16634;SDS011;8431;52.458;9.998;2023-08-12T11:52:50;14.93;;;14.23;;
16634;SDS011;8431;52.458;9.998;2023-08-12T11:55:19;18.20;;;17.30;;
16634;SDS011;8431;52.458;9.998;2023-08-12T11:57:47;17.15;;;16.25;;
16634;SDS011;8431;52.458;9.998;2023-08-12T12:00:14;18.27;;;17.30;;
16634;SDS011;8431;52.458;9.998;2023-08-12T12:02:45;17.25;;;16.45;;
16634;SDS011;8431;52.458;9.998;2023-08-12T12:05:14;17.73;;;16.83;;
16634;SDS011;8431;52.458;9.998;2023-08-12T12:07:41;17.17;;;16.38;;
16634;SDS011;8431;52.458;9.998;2023-08-12T12:10:11;17.92;;;16.67;;
16634;SDS011;8431;52.458;9.998;2023-08-12T12:12:40;19.08;;;17.88;;
16634;SDS011;8431;52.458;9.998;2023-08-12T12:15:08;19.38;;;18.38;;
16634;SDS011;8431;52.458;9.998;2023-08-12T12:17:38;19.38;;;18.40;;
16634;SDS011;8431;52.458;9.998;2023-08-12T12:20:06;17.70;;;16.80;;
16634;SDS011;8431;52.458;9.998;2023-08-12T12:22:35;18.02;;;17.05;;
16634;SDS011;8431;52.458;9.998;2023-08-12T12:25:05;17.90;;;17.00;;
16634;SDS011;8431;52.458;9.998;2023-08-12T12:27:34;18.13;;;17.13;;
16634;SDS011;8431;52.458;9.998;2023-08-12T12:30:05;18.63;;;17.63;;
16634;SDS011;8431;52.458;9.998;2023-08-12T12:32:33;17.25;;;16.20;;
16634;SDS011;8431;52.458;9.998;2023-08-12T12:35:00;18.17;;;17.27;;
16634;SDS011;8431;52.458;9.998;2023-08-12T12:37:28;18.98;;;17.88;;
16634;SDS011;8431;52.458;9.998;2023-08-12T12:39:55;17.00;;;16.10;;
16634;SDS011;8431;52.458;9.998;2023-08-12T12:42:22;18.35;;;17.35;;
16634;SDS011;8431;52.458;9.998;2023-08-12T12:44:49;18.33;;;17.33;;
16634;SDS011;8431;52.458;9.998;2023-08-12T12:47:18;17.92;;;16.90;;
16634;SDS011;8431;52.458;9.998;2023-08-12T12:49:46;20.40;;;18.40;;
16634;SDS011;8431;52.458;9.998;2023-08-12T12:52:13;19.02;;;17.38;;
16634;SDS011;8431;52.458;9.998;2023-08-12T12:54:40;34.58;;;16.27;;
16634;SDS011;8431;52.458;9.998;2023-08-12T12:57:07;17.42;;;16.02;;
16634;SDS011;8431;52.458;9.998;2023-08-12T12:59:34;16.85;;;16.05;;
16634;SDS011;8431;52.458;9.998;2023-08-12T13:02:01;17.73;;;16.90;;
16634;SDS011;8431;52.458;9.998;2023-08-12T13:04:29;16.92;;;16.13;;
16634;SDS011;8431;52.458;9.998;2023-08-12T13:06:56;17.42;;;16.63;;
16634;SDS011;8431;52.458;9.998;2023-08-12T13:09:23;16.73;;;15.82;;
16634;SDS011;8431;52.458;9.998;2023-08-12T13:11:50;17.83;;;16.92;;
16634;SDS011;8431;52.458;9.998;2023-08-12T13:14:17;17.70;;;16.80;;
16634;SDS011;8431;52.458;9.998;2023-08-12T13:16:46;16.55;;;15.77;;
16634;SDS011;8431;52.458;9.998;2023-08-12T13:19:13;16.95;;;15.25;;
16634;SDS011;8431;52.458;9.998;2023-08-12T13:21:41;16.42;;;15.30;;
16634;SDS011;8431;52.458;9.998;2023-08-12T13:24:08;18.80;;;17.48;;
16634;SDS011;8431;52.458;9.998;2023-08-12T13:26:35;15.40;;;14.55;;
16634;SDS011;8431;52.458;9.998;2023-08-12T13:29:02;17.25;;;16.45;;
16634;SDS011;8431;52.458;9.998;2023-08-12T13:31:29;17.05;;;15.80;;
16634;SDS011;8431;52.458;9.998;2023-08-12T13:33:56;15.02;;;14.32;;
16634;SDS011;8431;52.458;9.998;2023-08-12T13:36:23;14.98;;;14.18;;
16634;SDS011;8431;52.458;9.998;2023-08-12T13:38:51;15.27;;;14.05;;
16634;SDS011;8431;52.458;9.998;2023-08-12T13:41:18;15.27;;;14.52;;
16634;SDS011;8431;52.458;9.998;2023-08-12T13:43:45;14.27;;;13.57;;
16634;SDS011;8431;52.458;9.998;2023-08-12T13:46:12;15.85;;;15.05;;
16634;SDS011;8431;52.458;9.998;2023-08-12T13:48:39;15.93;;;15.10;;
16634;SDS011;8431;52.458;9.998;2023-08-12T13:51:07;16.92;;;15.93;;
16634;SDS011;8431;52.458;9.998;2023-08-12T13:53:34;15.27;;;14.57;;
16634;SDS011;8431;52.458;9.998;2023-08-12T13:56:03;16.85;;;15.55;;
16634;SDS011;8431;52.458;9.998;2023-08-12T13:58:30;16.40;;;15.30;;
16634;SDS011;8431;52.458;9.998;2023-08-12T14:00:57;15.95;;;15.15;;
16634;SDS011;8431;52.458;9.998;2023-08-12T14:03:24;15.25;;;14.45;;
16634;SDS011;8431;52.458;9.998;2023-08-12T14:05:51;16.02;;;14.93;;
16634;SDS011;8431;52.458;9.998;2023-08-12T14:08:18;15.85;;;15.15;;
16634;SDS011;8431;52.458;9.998;2023-08-12T14:10:45;15.43;;;14.80;;
16634;SDS011;8431;52.458;9.998;2023-08-12T14:13:14;14.20;;;13.60;;
16634;SDS011;8431;52.458;9.998;2023-08-12T14:15:41;15.90;;;15.10;;
16634;SDS011;8431;52.458;9.998;2023-08-12T14:18:08;15.57;;;14.88;;
16634;SDS011;8431;52.458;9.998;2023-08-12T14:20:35;15.05;;;13.68;;
16634;SDS011;8431;52.458;9.998;2023-08-12T14:23:02;16.10;;;15.05;;
16634;SDS011;8431;52.458;9.998;2023-08-12T14:25:29;14.73;;;14.13;;
16634;SDS011;8431;52.458;9.998;2023-08-12T14:28:01;14.63;;;14.02;;
16634;SDS011;8431;52.458;9.998;2023-08-12T14:31:13;15.00;;;14.20;;
16634;SDS011;8431;52.458;9.998;2023-08-12T14:37:11;15.65;;;14.95;;
16634;SDS011;8431;52.458;9.998;2023-08-12T14:39:38;16.73;;;16.02;;
16634;SDS011;8431;52.458;9.998;2023-08-12T14:42:07;14.35;;;13.75;;
16634;SDS011;8431;52.458;9.998;2023-08-12T14:44:38;15.05;;;14.45;;